Fredericksburg, Virginia
Current Conditions -  °F | °C
As of 3:55 AM on Wednesday 26 Nov 2014 (Local Time) from KEZF Reporting Station
Light Rain Light Rain  
Wind Chill: 44°   Ceiling: 4500
Heat Index: 46°   Visibility: 10mi
Dew Point: 45°   Wind: 5mph
Humidity: 97%   Direction: 330°NNW
Pressure: 30.05"   Gusts: NA
Location:  38.3°N, 77.46°W
Report Text: KEZF 260855Z AUTO 33004KT 10SM -RA BKN045 BKN050 OVC070 08/07 A3005 RMK AO2 P0003 60004 T00770073
Loading
Personal Weather Stations






























Interactive Weather Map New forecast layout! Learn more

10-Day Weather Forecast

Advertisements
Track Severe Weather on mobile